KBUF

Buffalo Niagara International Airport

Buffalo, New York, USA
METAR KBUF 231101Z 19006KT 10SM -RA BKN055 BKN070 BKN120 06/06 A2954 RMK AO2 P0000 T00610061 $
Observed Flight Rules
Jan-23 @ 11:01 UTC (53 minutes ago) Visual Flight Rules
Wind Visibility Clouds Conditions
190° at 6 knots 10 miles
  • Broken at 5,500' AGL
  • Broken at 7,000' AGL
  • Broken at 12,000' AGL
  • Light Rain
Temperatures Readings Precipitation
Current 6°C / 43°F
Dewpoint 6°C / 43°F
Humidity 100%
Altimeter 29.54" Hg
Pressure 1000 hPa
Elevation 211
Current Rain 0.005
METAR KBUF 231101Z 19006KT 10SM -RA BKN055 BKN070 BKN120 06/06 A2954 RMK AO2 P0000 T00610061 $
Observed Flight Rules
Jan-23 @ 11:01 UTC
(53 minutes ago)
VFR
Wind Visibility
190° at 6 knots 10 miles
Clouds
  • Broken at 5,500' AGL
  • Broken at 7,000' AGL
  • Broken at 12,000' AGL
Conditions
  • Light Rain
Temperature Dewpoint
6°C / 43°F 6°C / 43°F
Humidity Altimeter Pressure
100% 29.54" Hg 1000 hPa
Current Rain
0.005